Time;durP1;ratioP1;P1;durP2;ratioP2;P2;SDS_P1;SDS_P2;PMS_P1;PMS_P2;Temp;Humidity;BMP_temperature;BMP_pressure;BME280_temperature;BME280_humidity;BME280_pressure;Samples;Min_cycle;Max_cycle;Signal;HPM_P1;HPM_P2
2023/04/30 00:02:19;;;;;;;;;;;;;;;11.64;100.00;96222.31;4987473;28;19963;-83
2023/04/30 00:04:46;;;;;;;;;;;;;;;11.66;100.00;96229.09;4983984;28;19957;-83
2023/04/30 00:07:13;;;;;;;;;;;;;;;11.69;100.00;96228.63;5020837;28;19957;-83
2023/04/30 00:09:39;;;;;;;;;;;;;;;11.63;100.00;96229.59;4990929;28;20104;-83
2023/04/30 00:12:06;;;;;;;;;;;;;;;11.65;100.00;96227.44;4989152;28;20040;-83
2023/04/30 00:14:33;;;;;;;;;;;;;;;11.64;100.00;96228.53;4985372;28;20011;-83
2023/04/30 00:17:01;;;;;;;;;;;;;;;11.61;100.00;96230.88;4983977;28;20219;-83
2023/04/30 00:19:27;;;;;;;;;;;;;;;11.61;100.00;96233.59;4988572;28;20202;-82
2023/04/30 00:21:56;;;;;;;;;;;;;;;11.62;100.00;96224.41;4990039;28;19955;-82
2023/04/30 00:24:22;;;;;;;;;;;;;;;11.60;100.00;96223.81;5016475;28;19952;-82
2023/04/30 00:26:49;;;;;;;;;;;;;;;11.46;100.00;96225.16;4986088;28;19954;-82
2023/04/30 00:29:18;;;;;;;;;;;;;;;11.47;100.00;96226.81;5016552;28;19975;-83
2023/04/30 00:31:45;;;;;;;;;;;;;;;11.43;100.00;96226.47;5001720;28;19960;-83
2023/04/30 00:34:13;;;;;;;;;;;;;;;11.37;100.00;96230.94;4982437;28;19955;-83
2023/04/30 00:36:40;;;;;;;;;;;;;;;11.41;100.00;96223.16;4991260;28;19960;-83
2023/04/30 00:39:07;;;;;;;;;;;;;;;11.43;100.00;96225.63;4987272;28;20029;-83
2023/04/30 00:41:35;;;;;;;;;;;;;;;11.42;100.00;96213.16;5012938;28;19996;-83
2023/04/30 00:44:02;;;;;;;;;;;;;;;11.46;100.00;96219.75;5004902;28;19983;-82
2023/04/30 00:46:29;;;;;;;;;;;;;;;11.55;100.00;96215.63;4987454;28;19967;-83
2023/04/30 00:48:56;;;;;;;;;;;;;;;11.63;100.00;96209.84;4983445;28;19971;-83
2023/04/30 00:51:24;;;;;;;;;;;;;;;11.68;100.00;96208.03;4989997;28;19967;-83
2023/04/30 00:53:51;;;;;;;;;;;;;;;11.75;100.00;96207.94;4987744;28;19954;-83
2023/04/30 00:56:18;;;;;;;;;;;;;;;11.84;100.00;96206.47;4984593;28;19970;-82
2023/04/30 00:58:45;;;;;;;;;;;;;;;11.91;100.00;96201.75;4990961;28;19952;-83
2023/04/30 01:01:12;;;;;;;;;;;;;;;11.92;100.00;96203.38;4990419;28;19950;-83
2023/04/30 01:03:39;;;;;;;;;;;;;;;11.91;100.00;96198.25;5016642;28;19954;-82
2023/04/30 01:06:06;;;;;;;;;;;;;;;11.94;100.00;96205.84;4982765;28;19958;-83
2023/04/30 01:08:34;;;;;;;;;;;;;;;11.96;100.00;96206.44;4987576;28;19961;-83
2023/04/30 01:11:08;;;;;;;;;;;;;;;11.94;100.00;96209.38;4977344;28;19946;-83
2023/04/30 01:13:39;;;;;;;;;;;;;;;11.91;100.00;96207.16;4992437;28;19969;-82
2023/04/30 01:16:10;;;;;;;;;;;;;;;11.84;100.00;96211.91;5016610;28;20015;-83
2023/04/30 01:18:41;;;;;;;;;;;;;;;11.79;100.00;96202.88;4989434;28;19951;-82
2023/04/30 01:21:09;;;;;;;;;;;;;;;11.71;100.00;96207.56;5000198;28;19964;-82
2023/04/30 01:23:55;;;;;;;;;;;;;;;11.66;100.00;96212.03;4989117;28;19952;-82
2023/04/30 01:26:29;;;;;;;;;;;;;;;11.63;100.00;96210.66;5021329;28;19965;-82
2023/04/30 01:28:59;;;;;;;;;;;;;;;11.62;100.00;96213.59;5013103;28;19969;-83
2023/04/30 01:31:28;;;;;;;;;;;;;;;11.63;100.00;96212.53;4989054;28;19955;-82
2023/04/30 01:33:56;;;;;;;;;;;;;;;11.64;100.00;96211.50;5015398;28;19954;-82
2023/04/30 01:36:33;;;;;;;;;;;;;;;11.69;100.00;96215.09;4990112;28;20025;-83
2023/04/30 01:39:06;;;;;;;;;;;;;;;11.71;100.00;96217.56;4987338;28;19950;-82
2023/04/30 01:41:35;;;;;;;;;;;;;;;11.75;100.00;96213.34;4991019;28;19954;-83
2023/04/30 01:44:12;;;;;;;;;;;;;;;11.75;100.00;96214.16;4976775;28;19970;-82
2023/04/30 01:46:40;;;;;;;;;;;;;;;11.75;100.00;96210.63;4992405;28;20003;-83
2023/04/30 01:49:11;;;;;;;;;;;;;;;11.73;100.00;96207.34;4988069;28;19964;-83
2023/04/30 01:51:40;;;;;;;;;;;;;;;11.72;100.00;96206.53;4991042;28;19954;-83
2023/04/30 01:54:12;;;;;;;;;;;;;;;11.78;100.00;96209.34;4981651;28;20004;-83
2023/04/30 01:56:41;;;;;;;;;;;;;;;11.81;100.00;96201.56;4990593;28;20022;-83
2023/04/30 01:59:09;;;;;;;;;;;;;;;11.88;100.00;96207.66;4979711;28;19951;-83
2023/04/30 02:01:36;;;;;;;;;;;;;;;11.94;100.00;96201.28;5007773;28;19959;-83
2023/04/30 02:04:03;;;;;;;;;;;;;;;11.98;100.00;96199.75;4993798;28;19958;-83
2023/04/30 02:06:30;;;;;;;;;;;;;;;11.97;100.00;96194.56;5009010;28;19965;-82
2023/04/30 02:09:01;;;;;;;;;;;;;;;11.92;100.00;96192.56;4988142;28;19971;-82
2023/04/30 02:11:28;;;;;;;;;;;;;;;11.87;100.00;96188.97;4983938;28;19961;-82
2023/04/30 02:13:55;;;;;;;;;;;;;;;11.80;100.00;96189.13;4978716;28;19968;-83
2023/04/30 02:16:24;;;;;;;;;;;;;;;11.77;100.00;96188.75;4992267;28;19988;-83
2023/04/30 02:18:51;;;;;;;;;;;;;;;11.79;100.00;96192.06;4981396;28;20046;-82
2023/04/30 02:21:18;;;;;;;;;;;;;;;11.83;100.00;96183.19;5010720;28;19956;-82
2023/04/30 02:23:45;;;;;;;;;;;;;;;11.85;100.00;96189.19;4983633;28;19953;-83
2023/04/30 02:26:12;;;;;;;;;;;;;;;11.91;100.00;96198.25;4986892;28;20081;-83
2023/04/30 02:28:38;;;;;;;;;;;;;;;11.89;100.00;96187.66;4982507;28;19968;-83
2023/04/30 02:31:05;;;;;;;;;;;;;;;11.88;100.00;96186.00;5000665;28;19953;-83
2023/04/30 02:33:33;;;;;;;;;;;;;;;11.89;100.00;96181.44;4985102;28;20009;-82
2023/04/30 02:36:00;;;;;;;;;;;;;;;11.83;100.00;96188.59;4984854;28;20013;-82
2023/04/30 02:38:27;;;;;;;;;;;;;;;11.89;100.00;96184.13;4983578;28;19954;-82
2023/04/30 02:40:54;;;;;;;;;;;;;;;11.91;100.00;96184.72;5003642;28;19950;-83
2023/04/30 02:43:21;;;;;;;;;;;;;;;11.85;100.00;96186.50;4982046;28;19959;-82
2023/04/30 02:45:48;;;;;;;;;;;;;;;11.87;100.00;96183.53;4991431;28;19955;-83
2023/04/30 02:48:15;;;;;;;;;;;;;;;11.86;100.00;96190.84;4985115;28;19995;-83
2023/04/30 02:50:43;;;;;;;;;;;;;;;11.88;100.00;96185.19;4987696;28;20005;-83
2023/04/30 02:53:10;;;;;;;;;;;;;;;11.88;100.00;96185.19;4983132;28;19955;-83
2023/04/30 02:55:39;;;;;;;;;;;;;;;11.91;100.00;96185.50;4985350;28;20009;-83
2023/04/30 02:58:05;;;;;;;;;;;;;;;11.95;100.00;96180.44;4982288;28;19957;-82
2023/04/30 03:00:32;;;;;;;;;;;;;;;11.99;100.00;96182.41;5001678;28;19953;-83
2023/04/30 03:02:59;;;;;;;;;;;;;;;12.03;100.00;96186.28;4981251;28;19950;-82
2023/04/30 03:05:25;;;;;;;;;;;;;;;12.05;100.00;96181.47;5004269;28;19948;-82
2023/04/30 03:07:53;;;;;;;;;;;;;;;12.06;100.00;96183.09;4981424;28;19953;-82
2023/04/30 03:10:20;;;;;;;;;;;;;;;12.03;100.00;96180.88;4997219;28;19972;-83
2023/04/30 03:12:47;;;;;;;;;;;;;;;12.06;100.00;96179.56;4984835;28;19949;-82
2023/04/30 03:15:14;;;;;;;;;;;;;;;12.00;100.00;96177.81;5012636;28;19978;-82
2023/04/30 03:17:41;;;;;;;;;;;;;;;11.98;100.00;96174.56;4999076;28;19988;-82
2023/04/30 03:20:08;;;;;;;;;;;;;;;11.97;100.00;96168.31;5001546;28;19954;-83
2023/04/30 03:22:34;;;;;;;;;;;;;;;11.93;100.00;96169.88;4982999;28;19958;-83
2023/04/30 03:25:03;;;;;;;;;;;;;;;11.90;100.00;96164.97;4975894;28;19956;-82
2023/04/30 03:27:30;;;;;;;;;;;;;;;11.92;100.00;96168.22;4980805;28;19957;-83
2023/04/30 03:29:57;;;;;;;;;;;;;;;11.93;100.00;96169.88;4982166;28;19964;-83
2023/04/30 03:32:24;;;;;;;;;;;;;;;11.92;100.00;96165.50;4987364;28;19946;-82
2023/04/30 03:34:50;;;;;;;;;;;;;;;11.88;100.00;96169.78;4982758;28;19960;-83
2023/04/30 03:37:17;;;;;;;;;;;;;;;11.84;100.00;96168.59;4985906;28;19958;-83
2023/04/30 03:39:44;;;;;;;;;;;;;;;11.82;100.00;96169.94;4984746;28;19950;-82
2023/04/30 03:42:13;;;;;;;;;;;;;;;11.84;100.00;96168.59;4990681;28;19955;-83
2023/04/30 03:44:39;;;;;;;;;;;;;;;11.86;100.00;96163.78;4990212;28;19952;-83
2023/04/30 03:47:06;;;;;;;;;;;;;;;11.82;100.00;96170.75;5019884;28;19944;-83
2023/04/30 03:49:33;;;;;;;;;;;;;;;11.78;100.00;96164.19;4992649;28;19966;-83
2023/04/30 03:51:59;;;;;;;;;;;;;;;11.74;100.00;96165.69;4985168;28;19954;-83
2023/04/30 03:54:26;;;;;;;;;;;;;;;11.70;100.00;96157.25;5017381;28;19982;-82
2023/04/30 03:56:53;;;;;;;;;;;;;;;11.74;100.00;96168.38;5011661;28;20099;-83
2023/04/30 03:59:21;;;;;;;;;;;;;;;11.74;100.00;96169.25;4990521;28;19958;-82
2023/04/30 04:01:48;;;;;;;;;;;;;;;11.77;100.00;96167.94;4988617;28;19976;-82
2023/04/30 04:04:15;;;;;;;;;;;;;;;11.79;100.00;96155.00;4982644;28;19951;-83
2023/04/30 04:06:42;;;;;;;;;;;;;;;11.83;100.00;96158.03;5020692;28;19955;-82
2023/04/30 04:09:09;;;;;;;;;;;;;;;11.83;100.00;96158.84;4976331;28;19984;-83
2023/04/30 04:11:36;;;;;;;;;;;;;;;11.82;100.00;96168.06;4991898;28;19954;-82
2023/04/30 04:14:03;;;;;;;;;;;;;;;11.85;100.00;96170.25;4987349;28;19969;-83
2023/04/30 04:16:31;;;;;;;;;;;;;;;11.87;100.00;96167.31;4988471;28;19970;-83
2023/04/30 04:18:58;;;;;;;;;;;;;;;11.81;100.00;96166.41;4998469;28;19951;-83
2023/04/30 04:21:25;;;;;;;;;;;;;;;11.79;100.00;96171.22;5009262;28;19962;-83
2023/04/30 04:23:52;;;;;;;;;;;;;;;11.80;100.00;96159.34;4992139;28;19957;-82
2023/04/30 04:26:20;;;;;;;;;;;;;;;11.84;100.00;96163.19;5020084;28;19945;-83
2023/04/30 04:28:47;;;;;;;;;;;;;;;11.87;100.00;96161.91;4979622;28;20020;-83
2023/04/30 04:31:14;;;;;;;;;;;;;;;11.89;100.00;96171.44;4999899;28;20004;-83
2023/04/30 04:33:42;;;;;;;;;;;;;;;11.91;100.00;96168.47;4984327;28;19955;-83
2023/04/30 04:36:09;;;;;;;;;;;;;;;11.89;100.00;96168.72;5002413;28;19954;-82
2023/04/30 04:38:36;;;;;;;;;;;;;;;11.80;100.00;96181.00;4990026;28;19962;-83
2023/04/30 04:41:04;;;;;;;;;;;;;;;11.74;100.00;96176.50;5002301;28;20032;-82
2023/04/30 04:43:31;;;;;;;;;;;;;;;11.71;100.00;96179.72;4980646;28;20194;-82
2023/04/30 04:45:58;;;;;;;;;;;;;;;11.74;100.00;96177.34;4996579;28;19974;-83
2023/04/30 04:48:25;;;;;;;;;;;;;;;11.79;100.00;96182.06;5019729;28;19954;-83
2023/04/30 04:50:53;;;;;;;;;;;;;;;11.80;100.00;96182.88;4989015;28;19970;-83
2023/04/30 04:53:20;;;;;;;;;;;;;;;11.82;100.00;96181.59;4985808;28;19946;-83
2023/04/30 04:55:46;;;;;;;;;;;;;;;11.86;100.00;96190.84;4988692;28;19997;-83
2023/04/30 04:58:13;;;;;;;;;;;;;;;11.86;100.00;96188.13;5018072;28;19973;-83
2023/04/30 05:00:40;;;;;;;;;;;;;;;11.88;100.00;96190.59;4987142;28;19960;-83
2023/04/30 05:03:08;;;;;;;;;;;;;;;11.88;100.00;96186.00;4990838;28;19950;-83
2023/04/30 05:05:35;;;;;;;;;;;;;;;11.81;100.00;96196.16;4983261;28;19961;-83
2023/04/30 05:08:03;;;;;;;;;;;;;;;11.74;100.00;96195.44;5020953;28;19966;-82
2023/04/30 05:10:30;;;;;;;;;;;;;;;11.70;100.00;96199.69;4980371;28;19962;-82
2023/04/30 05:12:57;;;;;;;;;;;;;;;11.70;100.00;96199.69;4979331;28;20052;-83
2023/04/30 05:15:24;;;;;;;;;;;;;;;11.69;100.00;96198.88;4999891;28;19966;-83
2023/04/30 05:17:51;;;;;;;;;;;;;;;11.73;100.00;96193.81;4982827;28;20329;-83
2023/04/30 05:20:18;;;;;;;;;;;;;;;11.79;100.00;96203.69;4992659;28;19957;-82
2023/04/30 05:22:45;;;;;;;;;;;;;;;11.86;100.00;96193.53;4986217;28;19954;-82
2023/04/30 05:25:13;;;;;;;;;;;;;;;11.91;100.00;96200.94;4984088;28;19955;-83
2023/04/30 05:27:40;;;;;;;;;;;;;;;11.89;100.00;96190.38;4985352;28;19949;-83
2023/04/30 05:30:08;;;;;;;;;;;;;;;11.88;100.00;96196.84;4994143;28;19963;-83
2023/04/30 05:32:35;;;;;;;;;;;;;;;11.92;100.00;96194.44;4991848;28;19954;-83
2023/04/30 05:35:01;;;;;;;;;;;;;;;11.99;100.00;96195.16;4983652;28;20003;-83
2023/04/30 05:37:28;;;;;;;;;;;;;;;12.00;100.00;96194.06;4989263;28;20009;-82
2023/04/30 05:39:55;;;;;;;;;;;;;;;12.00;100.00;96196.75;4987960;28;19951;-83
2023/04/30 05:42:23;;;;;;;;;;;;;;;12.00;100.00;96197.59;4986799;28;19952;-82
2023/04/30 05:44:50;;;;;;;;;;;;;;;12.08;100.00;96197.19;4986484;28;19948;-83
2023/04/30 05:47:17;;;;;;;;;;;;;;;12.13;100.00;96191.06;4986017;28;19947;-82
2023/04/30 05:49:43;;;;;;;;;;;;;;;12.18;100.00;96190.31;4991051;28;19966;-83
2023/04/30 05:52:10;;;;;;;;;;;;;;;12.25;100.00;96191.00;4980985;28;20017;-83
2023/04/30 05:54:37;;;;;;;;;;;;;;;12.29;100.00;96192.16;4975960;28;19952;-83
2023/04/30 05:57:04;;;;;;;;;;;;;;;12.31;100.00;96193.56;4995114;28;19952;-83
2023/04/30 05:59:32;;;;;;;;;;;;;;;12.30;100.00;96191.91;4982821;28;19959;-82
2023/04/30 06:01:59;;;;;;;;;;;;;;;12.36;100.00;96187.38;5019177;28;20048;-83
2023/04/30 06:04:25;;;;;;;;;;;;;;;12.40;100.00;96189.38;4988476;28;19960;-83
2023/04/30 06:06:52;;;;;;;;;;;;;;;12.45;100.00;96185.91;4985877;28;20006;-82
2023/04/30 06:09:19;;;;;;;;;;;;;;;12.44;100.00;96178.84;4985070;28;19969;-83
2023/04/30 06:11:49;;;;;;;;;;;;;;;12.47;100.00;96186.50;5015467;28;20009;-82
2023/04/30 06:14:16;;;;;;;;;;;;;;;12.49;100.00;96182.50;4986222;28;19962;-82
2023/04/30 06:16:44;;;;;;;;;;;;;;;12.55;100.00;96183.38;4986584;28;20057;-82
2023/04/30 06:19:11;;;;;;;;;;;;;;;12.64;100.00;96187.31;4986227;28;19998;-83
2023/04/30 06:21:37;;;;;;;;;;;;;;;12.72;100.00;96177.97;4982401;28;19957;-83
2023/04/30 06:24:05;;;;;;;;;;;;;;;12.71;100.00;96185.25;4985625;28;19958;-83
2023/04/30 06:26:32;;;;;;;;;;;;;;;12.66;100.00;96177.06;4982430;28;19962;-83
2023/04/30 06:28:59;;;;;;;;;;;;;;;12.67;100.00;96184.13;4980064;28;19962;-79
2023/04/30 06:31:26;;;;;;;;;;;;;;;12.73;100.00;96171.47;4983611;28;20032;-80
2023/04/30 06:33:54;;;;;;;;;;;;;;;12.77;100.00;96178.84;4986619;28;19955;-78
2023/04/30 06:36:21;;;;;;;;;;;;;;;12.85;100.00;96177.59;4983448;28;20041;-80
2023/04/30 06:38:47;;;;;;;;;;;;;;;12.98;100.00;96174.56;4981759;28;19965;-80
2023/04/30 06:41:15;;;;;;;;;;;;;;;13.11;100.00;96167.94;5008104;28;19957;-79
2023/04/30 06:43:41;;;;;;;;;;;;;;;13.17;100.00;96172.41;4985746;28;19958;-80
2023/04/30 06:46:09;;;;;;;;;;;;;;;13.29;100.00;96175.81;4989303;28;19958;-79
2023/04/30 06:48:35;;;;;;;;;;;;;;;13.33;100.00;96173.44;5000434;28;19970;-79
2023/04/30 06:51:03;;;;;;;;;;;;;;;13.43;100.00;96170.84;4976615;28;19962;-79
2023/04/30 06:53:30;;;;;;;;;;;;;;;13.46;100.00;96168.44;4991638;28;19962;-80
2023/04/30 06:55:57;;;;;;;;;;;;;;;13.55;100.00;96172.34;4987493;28;19948;-79
2023/04/30 06:58:23;;;;;;;;;;;;;;;13.59;100.00;96169.97;4986377;28;19960;-79
2023/04/30 07:00:51;;;;;;;;;;;;;;;13.57;100.00;96174.81;4985326;28;19952;-80
2023/04/30 07:03:17;;;;;;;;;;;;;;;13.60;100.00;96179.75;4977453;28;19958;-80
2023/04/30 07:05:44;;;;;;;;;;;;;;;13.66;100.00;96175.19;4986872;28;19954;-79
2023/04/30 07:08:14;;;;;;;;;;;;;;;13.64;100.00;96173.53;4987612;28;19950;-79
2023/04/30 07:10:40;;;;;;;;;;;;;;;13.67;100.00;96179.53;4984901;28;19983;-80
2023/04/30 07:13:07;;;;;;;;;;;;;;;13.71;100.00;96177.94;4985990;28;19950;-80
2023/04/30 07:15:34;;;;;;;;;;;;;;;13.78;100.00;96179.38;4984293;28;19960;-79
2023/04/30 07:18:02;;;;;;;;;;;;;;;13.68;100.00;96173.88;4987691;28;19963;-80
2023/04/30 07:20:29;;;;;;;;;;;;;;;13.66;100.00;96180.63;4985543;28;19967;-80
2023/04/30 07:22:56;;;;;;;;;;;;;;;13.77;100.00;96179.66;5000411;28;19953;-79
2023/04/30 07:25:24;;;;;;;;;;;;;;;13.87;100.00;96171.59;5015403;28;19959;-80
2023/04/30 07:27:51;;;;;;;;;;;;;;;13.97;100.00;96171.72;4983834;28;19975;-79
2023/04/30 07:30:19;;;;;;;;;;;;;;;14.02;100.00;96174.50;4976405;28;19968;-79
2023/04/30 07:32:47;;;;;;;;;;;;;;;14.00;100.00;96168.50;4973403;28;19953;-81
2023/04/30 07:35:14;;;;;;;;;;;;;;;14.02;100.00;96169.09;4985701;28;19957;-80
2023/04/30 07:37:42;;;;;;;;;;;;;;;14.00;100.00;96166.63;4974162;28;20047;-80
2023/04/30 07:40:11;;;;;;;;;;;;;;;14.11;100.00;96170.25;4992171;28;19967;-80
2023/04/30 07:42:39;;;;;;;;;;;;;;;14.29;100.00;96164.44;5021946;28;19968;-79
2023/04/30 07:45:07;;;;;;;;;;;;;;;14.41;100.00;96166.19;4987502;28;19987;-80
2023/04/30 07:47:33;;;;;;;;;;;;;;;14.51;100.00;96160.84;4985347;28;19957;-80
2023/04/30 07:50:00;;;;;;;;;;;;;;;14.65;100.00;96157.44;4981339;28;19975;-80
2023/04/30 07:52:27;;;;;;;;;;;;;;;14.85;100.00;96158.66;4967815;28;19957;-81
2023/04/30 07:54:54;;;;;;;;;;;;;;;15.02;100.00;96143.81;4981942;28;19954;-80
2023/04/30 07:57:20;;;;;;;;;;;;;;;15.29;100.00;96140.16;4975447;28;20034;-80
2023/04/30 07:59:48;;;;;;;;;;;;;;;15.37;100.00;96136.94;4971253;28;19997;-80
2023/04/30 08:02:15;;;;;;;;;;;;;;;15.56;100.00;96150.94;4977183;28;19973;-79
2023/04/30 08:04:43;;;;;;;;;;;;;;;15.72;100.00;96141.72;5001752;28;19983;-80
2023/04/30 08:07:09;;;;;;;;;;;;;;;15.88;100.00;96140.69;4973160;28;19953;-80
2023/04/30 08:09:36;;;;;;;;;;;;;;;15.88;100.00;96146.13;4974998;28;19990;-80
2023/04/30 08:12:03;;;;;;;;;;;;;;;15.74;100.00;96142.25;4989488;28;19956;-80
2023/04/30 08:14:30;;;;;;;;;;;;;;;15.75;100.00;96135.72;4961923;28;19974;-80
2023/04/30 08:16:59;;;;;;;;;;;;;;;15.78;100.00;96136.03;4984976;28;19970;-80
2023/04/30 08:19:26;;;;;;;;;;;;;;;15.86;100.00;96135.50;4967367;28;19950;-80
2023/04/30 08:21:53;;;;;;;;;;;;;;;16.07;100.00;96141.81;4977445;28;19957;-81
2023/04/30 08:24:19;;;;;;;;;;;;;;;16.22;100.00;96130.13;5000414;28;19963;-80
2023/04/30 08:26:46;;;;;;;;;;;;;;;16.33;100.00;96134.50;4988607;28;19954;-80
2023/04/30 08:29:13;;;;;;;;;;;;;;;16.26;100.00;96131.19;4972072;28;19962;-81
2023/04/30 08:31:40;;;;;;;;;;;;;;;16.22;100.00;96139.09;5002459;28;19970;-81
2023/04/30 08:34:08;;;;;;;;;;;;;;;16.35;100.00;96132.28;4974984;28;19957;-80
2023/04/30 08:36:34;;;;;;;;;;;;;;;16.39;100.00;96132.56;4996676;28;19952;-80
2023/04/30 08:39:02;;;;;;;;;;;;;;;16.49;100.00;96132.59;4999890;28;20034;-80
2023/04/30 08:41:32;;;;;;;;;;;;;;;16.67;100.00;96136.69;4976077;28;19967;-80
2023/04/30 08:44:01;;;;;;;;;;;;;;;16.77;100.00;96128.50;4976414;28;19956;-81
2023/04/30 08:46:29;;;;;;;;;;;;;;;16.81;100.00;96140.50;4975914;28;19963;-81
2023/04/30 08:48:57;;;;;;;;;;;;;;;16.80;100.00;96138.84;4975697;28;19949;-81
2023/04/30 08:51:26;;;;;;;;;;;;;;;16.66;100.00;96137.78;4978725;28;19984;-81
2023/04/30 08:53:55;;;;;;;;;;;;;;;16.68;100.00;96139.13;4976400;28;20052;-81
2023/04/30 08:56:21;;;;;;;;;;;;;;;16.56;100.00;96144.84;4978063;28;19963;-80
2023/04/30 08:58:48;;;;;;;;;;;;;;;16.48;100.00;96137.22;4972296;28;19965;-81
2023/04/30 09:01:15;;;;;;;;;;;;;;;16.27;100.00;96138.28;4979826;28;20207;-81
2023/04/30 09:03:42;;;;;;;;;;;;;;;16.23;100.00;96142.66;4979220;28;19952;-80
2023/04/30 09:06:08;;;;;;;;;;;;;;;16.30;100.00;96139.66;4979090;28;19945;-81
2023/04/30 09:08:44;;;;;;;;;;;;;;;16.27;100.00;96135.56;4974461;28;19959;-81
2023/04/30 09:11:29;;;;;;;;;;;;;;;16.35;100.00;96143.19;4972745;28;20005;-81
2023/04/30 09:13:56;;;;;;;;;;;;;;;16.56;100.00;96131.22;4987940;28;20054;-81
2023/04/30 09:16:23;;;;;;;;;;;;;;;16.81;100.00;96144.03;4973699;28;19973;-82
2023/04/30 09:18:50;;;;;;;;;;;;;;;16.90;100.00;96139.66;4972890;28;20044;-81
2023/04/30 09:21:17;;;;;;;;;;;;;;;16.95;100.00;96133.38;4991307;28;19950;-80
2023/04/30 09:23:58;;;;;;;;;;;;;;;17.07;100.00;96130.34;4974866;28;19964;-81
2023/04/30 09:26:32;;;;;;;;;;;;;;;17.07;100.00;96133.09;4973664;28;19952;-81
2023/04/30 09:28:59;;;;;;;;;;;;;;;17.21;100.00;96124.03;4977404;28;19956;-81
2023/04/30 09:31:26;;;;;;;;;;;;;;;17.29;100.00;96120.72;4974557;28;19978;-81
2023/04/30 09:33:54;;;;;;;;;;;;;;;17.33;100.00;96118.28;4976578;28;19954;-81
2023/04/30 09:36:21;;;;;;;;;;;;;;;17.46;100.00;96109.47;4978920;28;19952;-81
2023/04/30 09:38:47;;;;;;;;;;;;;;;17.63;100.00;96115.44;4980979;28;19962;-83
2023/04/30 09:41:22;;;;;;;;;;;;;;;17.78;99.59;96111.81;4975286;28;19953;-83
2023/04/30 09:43:50;;;;;;;;;;;;;;;17.89;100.00;96107.94;4987099;28;19957;-83
2023/04/30 09:46:19;;;;;;;;;;;;;;;17.95;99.96;96106.78;4969647;28;20117;-83
2023/04/30 09:48:46;;;;;;;;;;;;;;;17.88;99.71;96111.75;4984050;28;19949;-83
2023/04/30 09:51:12;;;;;;;;;;;;;;;17.95;100.00;96106.00;4974835;28;19972;-83
2023/04/30 09:53:42;;;;;;;;;;;;;;;17.84;100.00;96101.69;4987256;28;19953;-83
2023/04/30 09:56:09;;;;;;;;;;;;;;;17.96;98.93;96102.97;5022584;28;19957;-83
2023/04/30 09:58:37;;;;;;;;;;;;;;;17.91;97.20;96100.28;4988674;28;19950;-84
2023/04/30 10:01:06;;;;;;;;;;;;;;;18.03;97.96;96098.00;4989514;28;19947;-84
2023/04/30 10:03:33;;;;;;;;;;;;;;;18.41;96.46;96093.63;4992855;28;19953;-84
2023/04/30 10:06:00;;;;;;;;;;;;;;;18.71;96.63;96089.03;4982886;28;19948;-83
2023/04/30 10:08:30;;;;;;;;;;;;;;;19.01;95.36;96091.47;4990365;28;19949;-84
2023/04/30 10:10:59;;;;;;;;;;;;;;;18.93;93.60;96080.34;4972259;28;19966;-84
2023/04/30 10:13:30;;;;;;;;;;;;;;;18.99;94.05;96079.16;4995676;28;19974;-84
2023/04/30 10:15:58;;;;;;;;;;;;;;;19.06;93.64;96077.72;4971188;28;20012;-82
2023/04/30 10:18:28;;;;;;;;;;;;;;;19.08;91.08;96075.50;5005930;28;19952;-82
2023/04/30 10:20:56;;;;;;;;;;;;;;;19.19;91.88;96079.78;4971411;28;19960;-81
2023/04/30 10:23:23;;;;;;;;;;;;;;;19.23;91.19;96074.50;4988220;28;19958;-82
2023/04/30 10:25:51;;;;;;;;;;;;;;;19.08;88.72;96069.22;5007028;28;19952;-82
2023/04/30 10:28:18;;;;;;;;;;;;;;;18.89;91.62;96066.41;4970996;28;20487;-82
2023/04/30 10:30:45;;;;;;;;;;;;;;;18.92;89.85;96068.56;5005725;28;19968;-82
2023/04/30 10:33:15;;;;;;;;;;;;;;;18.90;89.27;96062.56;4984909;28;19948;-82
2023/04/30 10:35:46;;;;;;;;;;;;;;;18.83;89.25;96060.19;4989703;28;19960;-81
2023/04/30 10:38:18;;;;;;;;;;;;;;;18.95;90.14;96059.78;4982140;28;19949;-82
2023/04/30 10:40:46;;;;;;;;;;;;;;;19.15;89.89;96058.72;4980455;28;20057;-82
2023/04/30 10:43:12;;;;;;;;;;;;;;;19.01;89.91;96052.34;4974011;28;19980;-82
2023/04/30 10:45:43;;;;;;;;;;;;;;;18.97;91.04;96059.50;5009427;28;19953;-82
2023/04/30 10:48:10;;;;;;;;;;;;;;;18.76;91.24;96061.63;5006438;28;20003;-82
2023/04/30 10:50:40;;;;;;;;;;;;;;;18.96;94.31;96055.97;4964319;28;19956;-81
2023/04/30 10:53:12;;;;;;;;;;;;;;;19.08;91.37;96055.53;4972839;28;19950;-81
2023/04/30 10:55:48;;;;;;;;;;;;;;;19.01;91.30;96052.34;5004597;28;19950;-84
2023/04/30 10:58:24;;;;;;;;;;;;;;;18.83;92.55;96051.97;4988132;28;19950;-83
2023/04/30 11:01:00;;;;;;;;;;;;;;;18.69;94.16;96042.00;4975598;28;19952;-84
2023/04/30 11:03:28;;;;;;;;;;;;;;;18.73;93.07;96049.34;4970946;28;19954;-82
2023/04/30 11:05:55;;;;;;;;;;;;;;;18.78;92.31;96049.31;4988660;28;20008;-82
2023/04/30 11:08:33;;;;;;;;;;;;;;;18.89;92.95;96041.78;4988907;28;19950;-81
2023/04/30 11:11:00;;;;;;;;;;;;;;;18.75;92.49;96038.94;4976363;28;20043;-82
2023/04/30 11:13:27;;;;;;;;;;;;;;;18.86;91.24;96034.19;4971216;28;19973;-82
2023/04/30 11:15:54;;;;;;;;;;;;;;;19.13;90.61;96028.13;4984908;28;20004;-82
2023/04/30 11:18:21;;;;;;;;;;;;;;;19.10;86.47;96034.16;4971805;28;19989;-82
2023/04/30 11:20:51;;;;;;;;;;;;;;;19.26;85.46;96028.22;4986324;28;20333;-81
2023/04/30 11:23:22;;;;;;;;;;;;;;;19.17;87.59;96035.44;4971523;28;19973;-80
2023/04/30 11:25:53;;;;;;;;;;;;;;;19.15;85.58;96028.63;4984522;28;19945;-80
2023/04/30 11:28:21;;;;;;;;;;;;;;;19.31;85.82;96026.53;5002080;28;19980;-80
2023/04/30 11:30:52;;;;;;;;;;;;;;;19.41;85.98;96029.13;4971216;28;19955;-81
2023/04/30 11:33:19;;;;;;;;;;;;;;;19.47;89.26;96039.78;4971526;28;20024;-81
2023/04/30 11:35:46;;;;;;;;;;;;;;;19.43;85.72;96022.25;4973028;28;19956;-81
2023/04/30 11:38:14;;;;;;;;;;;;;;;19.57;88.31;96019.63;5005219;28;19954;-81
2023/04/30 11:40:41;;;;;;;;;;;;;;;19.69;83.88;96028.22;4985411;28;19950;-81
2023/04/30 11:43:20;;;;;;;;;;;;;;;19.74;85.00;96032.81;4981302;28;19955;-84
2023/04/30 11:45:58;;;;;;;;;;;;;;;19.57;86.25;96023.19;5002888;28;19952;-81
2023/04/30 11:48:30;;;;;;;;;;;;;;;19.34;86.83;96017.72;4974067;28;19957;-82
2023/04/30 11:50:57;;;;;;;;;;;;;;;19.42;87.51;96025.28;4971223;28;19957;-82
2023/04/30 11:53:26;;;;;;;;;;;;;;;19.21;88.45;96013.78;4987723;28;19957;-81
2023/04/30 11:55:54;;;;;;;;;;;;;;;18.97;88.98;96018.47;4988575;28;19958;-81
2023/04/30 11:58:22;;;;;;;;;;;;;;;18.51;90.31;96014.25;4988714;28;19953;-81
2023/04/30 12:00:51;;;;;;;;;;;;;;;18.35;91.14;96028.38;4972434;28;19958;-81
2023/04/30 12:03:17;;;;;;;;;;;;;;;18.28;91.82;96027.88;4976021;28;19986;-81
2023/04/30 12:05:46;;;;;;;;;;;;;;;18.23;94.19;96019.72;4976034;28;19957;-82
2023/04/30 12:08:13;;;;;;;;;;;;;;;18.29;93.70;96026.78;4976099;28;20010;-82
2023/04/30 12:10:39;;;;;;;;;;;;;;;18.05;95.89;96022.03;4982167;28;19949;-81
2023/04/30 12:13:06;;;;;;;;;;;;;;;18.02;95.47;96030.00;4980006;28;19960;-82
2023/04/30 12:15:35;;;;;;;;;;;;;;;17.98;95.75;96027.00;5010853;28;19952;-83
2023/04/30 12:18:12;;;;;;;;;;;;;;;17.87;95.43;96028.19;5011364;28;19963;-84
2023/04/30 12:20:39;;;;;;;;;;;;;;;17.76;96.15;96027.47;4997374;28;19957;-83
2023/04/30 12:23:06;;;;;;;;;;;;;;;17.97;98.40;96025.38;4998803;28;19992;-84
2023/04/30 12:25:39;;;;;;;;;;;;;;;17.89;96.80;96028.72;4991224;28;19951;-83
2023/04/30 12:28:06;;;;;;;;;;;;;;;17.60;98.26;96041.47;5002278;28;19990;-84
2023/04/30 12:30:34;;;;;;;;;;;;;;;17.59;98.00;96037.91;4988470;28;19961;-84
2023/04/30 12:33:02;;;;;;;;;;;;;;;17.56;98.83;96034.91;4991160;28;19955;-84
2023/04/30 12:35:30;;;;;;;;;;;;;;;17.44;96.71;96043.44;4987870;28;19952;-85
2023/04/30 12:38:01;;;;;;;;;;;;;;;17.56;99.01;96037.66;4995449;28;19956;-85
2023/04/30 12:40:28;;;;;;;;;;;;;;;17.64;97.62;96039.81;5003398;28;19955;-84
2023/04/30 12:43:00;;;;;;;;;;;;;;;17.70;98.20;96038.66;5012181;28;19951;-85